NCAR-RAP Real-Time Weather Data

Output produced by METARs form (25 August 2019  22:29 UTC)
found at http://weather.rap.ucar.edu/surface/
 
KGUY 252153Z AUTO 13008KT 10SM CLR 33/19 A2981 RMK AO2 SLP039 T03330189 $
KGUY 252053Z AUTO 14006KT 10SM CLR 32/19 A2983 RMK AO2 SLP048 T03220194 58016 $
KGUY 251953Z AUTO 13007KT 10SM CLR 32/20 A2986 RMK AO2 SLP056 T03170200 $
KGUY 251853Z AUTO 13007KT 10SM CLR 31/19 A2987 RMK AO2 SLP061 T03110194 $
KGUY 251753Z AUTO 15005KT 10SM CLR 29/19 A2988 RMK AO2 SLP066 T02940194 10300 20200 58002 $
KGUY 251653Z AUTO 13007KT 090V160 10SM CLR 28/19 A2989 RMK AO2 SLP072 T02830189 $
KGUY 251553Z AUTO VRB03KT 10SM CLR 26/19 A2989 RMK AO2 SLP074 T02610194 $
KGUY 251453Z AUTO 20006KT 10SM CLR 25/19 A2989 RMK AO2 SLP072 T02500194 51009 $
KGUY 251353Z AUTO 18007KT 10SM CLR 23/20 A2989 RMK AO2 SLP073 T02280200 $
KGUY 251253Z AUTO 20004KT 10SM CLR 21/19 A2988 RMK AO2 SLP071 T02060189 $
KGUY 251153Z AUTO 19005KT 10SM CLR 21/19 A2986 RMK AO2 SLP062 60000 T02060189 10244 20206 55014 $
KGUY 251053Z AUTO 19006KT 10SM CLR 22/19 A2986 RMK AO2 SLP059 T02170189 $
KGUY 250953Z AUTO 19006KT 10SM CLR 21/19 A2988 RMK AO2 SLP068 T02110189 $
KGUY 250853Z AUTO 12003KT 10SM CLR 22/19 A2990 RMK AO2 SLP076 60000 T02170189 56010 $
KGUY 250753Z AUTO 14004KT 10SM CLR 23/19 A2991 RMK AO2 RAB18E36 SLP076 P0000 T02280194 $
KGUY 250653Z AUTO 13006KT 10SM CLR 23/19 A2993 RMK AO2 SLP084 T02330194 $
KGUY 250553Z AUTO 09003KT 10SM CLR 23/20 A2994 RMK AO2 SLP087 T02330200 10289 20233 403170172 51008 $
KGUY 250453Z AUTO 16006KT 10SM CLR 23/20 A2992 RMK AO2 SLP083 T02330200 $
KGUY 250353Z AUTO 14009KT 10SM CLR 24/20 A2994 RMK AO2 SLP093 T02390200 $
KGUY 250253Z AUTO 15012KT 10SM CLR 25/19 A2991 RMK AO2 SLP084 T02500194 56007 $
KGUY 250153Z AUTO 13009KT 10SM CLR 26/19 A2991 RMK AO2 SLP085 T02560194 $